createdAt,value
2019-04-10T00:00:00.078Z,8.19
2019-04-10T00:02:33.362Z,8.17
2019-04-10T00:05:12.114Z,8.17
2019-04-10T00:07:47.910Z,8.08
2019-04-10T00:10:22.150Z,8.08
2019-04-10T00:12:56.118Z,8.07
2019-04-10T00:15:30.561Z,8.07
2019-04-10T00:18:03.555Z,8.00
2019-04-10T00:20:36.484Z,7.86
2019-04-10T00:23:13.170Z,7.87
2019-04-10T00:25:45.821Z,7.83
2019-04-10T00:28:19.148Z,7.85
2019-04-10T00:30:56.321Z,7.87
2019-04-10T00:33:29.144Z,7.79
2019-04-10T00:36:01.720Z,7.75
2019-04-10T00:38:35.455Z,7.72
2019-04-10T00:41:08.082Z,7.71
2019-04-10T00:43:41.526Z,7.66
2019-04-10T00:46:15.755Z,7.61
2019-04-10T00:48:48.484Z,7.68
2019-04-10T00:51:23.435Z,7.63
2019-04-10T00:55:35.613Z,7.64
2019-04-10T00:58:08.235Z,7.55
2019-04-10T01:00:41.258Z,7.49
2019-04-10T01:03:34.139Z,7.39
2019-04-10T01:06:06.767Z,7.39
2019-04-10T01:08:40.862Z,7.30
2019-04-10T01:11:13.638Z,7.29
2019-04-10T01:13:48.090Z,7.32
2019-04-10T01:16:20.986Z,7.41
2019-04-10T01:18:53.577Z,7.45
2019-04-10T01:21:26.375Z,7.36
2019-04-10T01:23:59.505Z,7.22
2019-04-10T01:26:32.190Z,7.19
2019-04-10T01:29:05.112Z,7.22
2019-04-10T01:31:39.327Z,7.24
2019-04-10T01:34:13.561Z,7.14
2019-04-10T01:36:46.407Z,7.04
2019-04-10T01:39:22.457Z,7.03
2019-04-10T01:41:54.926Z,7.07
2019-04-10T01:44:27.568Z,6.97
2019-04-10T01:47:00.344Z,7.01
2019-04-10T01:49:33.901Z,6.99
2019-04-10T01:52:06.937Z,6.93
2019-04-10T01:54:43.101Z,6.79
2019-04-10T01:57:18.309Z,6.78
2019-04-10T01:59:50.836Z,6.76
2019-04-10T02:02:29.995Z,6.77
2019-04-10T02:05:04.021Z,6.69
2019-04-10T02:07:36.715Z,6.61
2019-04-10T02:10:10.519Z,6.55
2019-04-10T02:12:43.786Z,6.49
2019-04-10T02:15:17.755Z,6.47
2019-04-10T02:17:50.868Z,6.53
2019-04-10T02:20:23.507Z,6.58
2019-04-10T02:22:56.178Z,6.47
2019-04-10T02:25:29.073Z,6.52
2019-04-10T02:28:02.699Z,6.50
2019-04-10T02:30:37.339Z,6.46
2019-04-10T02:33:13.790Z,6.40
2019-04-10T02:35:47.703Z,6.37
2019-04-10T02:38:37.374Z,6.31
2019-04-10T02:41:17.627Z,6.38
2019-04-10T02:43:51.433Z,6.26
2019-04-10T02:46:25.075Z,6.27
2019-04-10T02:48:57.973Z,6.27
2019-04-10T02:51:32.467Z,6.24
2019-04-10T02:54:05.624Z,6.14
2019-04-10T02:56:39.143Z,6.21
2019-04-10T02:59:15.321Z,6.16
2019-04-10T03:01:49.725Z,6.08
2019-04-10T03:04:22.454Z,5.96
2019-04-10T03:06:57.602Z,5.91
2019-04-10T03:09:44.484Z,5.92
2019-04-10T03:12:28.263Z,5.94
2019-04-10T03:15:04.226Z,5.90
2019-04-10T03:17:38.382Z,5.89
2019-04-10T03:20:11.157Z,5.91
2019-04-10T03:22:43.683Z,5.81
2019-04-10T03:25:19.750Z,5.80
2019-04-10T03:27:54.394Z,5.71
2019-04-10T03:30:27.419Z,5.73
2019-04-10T03:33:26.095Z,5.69
2019-04-10T03:36:00.209Z,5.58
2019-04-10T03:38:34.377Z,5.52
2019-04-10T03:41:17.790Z,5.50
2019-04-10T03:43:52.130Z,5.49
2019-04-10T03:46:25.646Z,5.50
2019-04-10T03:49:03.179Z,5.39
2019-04-10T03:51:36.626Z,5.24
2019-04-10T03:54:09.149Z,5.23
2019-04-10T03:56:42.356Z,5.13
2019-04-10T03:59:17.526Z,5.03
2019-04-10T04:01:51.365Z,4.97
2019-04-10T04:04:24.309Z,4.93
2019-04-10T04:06:57.780Z,4.91
2019-04-10T04:09:33.630Z,4.85
2019-04-10T04:12:06.908Z,4.93
2019-04-10T04:14:40.871Z,4.94
2019-04-10T04:17:14.191Z,4.80
2019-04-10T04:19:48.400Z,4.67
2019-04-10T04:22:22.865Z,4.55
2019-04-10T04:24:58.178Z,4.43
2019-04-10T04:27:30.848Z,4.43
2019-04-10T04:30:06.365Z,4.49
2019-04-10T04:32:40.083Z,4.56
2019-04-10T04:35:14.065Z,4.58
2019-04-10T04:37:46.646Z,4.52
2019-04-10T04:40:19.775Z,4.35
2019-04-10T04:42:53.600Z,4.30
2019-04-10T04:45:26.327Z,4.22
2019-04-10T04:47:59.762Z,4.32
2019-04-10T04:50:34.110Z,4.34
2019-04-10T04:53:08.719Z,4.52
2019-04-10T04:55:41.350Z,4.46
2019-04-10T04:58:13.872Z,4.28
2019-04-10T05:00:46.623Z,4.19
2019-04-10T05:03:19.222Z,4.14
2019-04-10T05:05:51.976Z,4.08
2019-04-10T05:08:26.514Z,4.25
2019-04-10T05:11:00.190Z,4.28
2019-04-10T05:13:34.784Z,4.32
2019-04-10T05:16:10.164Z,4.31
2019-04-10T05:18:45.667Z,4.19
2019-04-10T05:21:19.162Z,4.15
2019-04-10T05:23:53.376Z,4.11
2019-04-10T05:26:27.715Z,4.26
2019-04-10T05:29:00.582Z,4.31
2019-04-10T05:31:34.197Z,4.29
2019-04-10T05:34:07.347Z,4.33
2019-04-10T05:36:40.753Z,4.35
2019-04-10T05:39:16.862Z,4.46
2019-04-10T05:41:50.294Z,4.48
2019-04-10T05:44:23.931Z,4.57
2019-04-10T05:46:59.056Z,4.59
2019-04-10T05:49:31.762Z,4.58
2019-04-10T05:52:06.125Z,4.54
2019-04-10T05:54:39.950Z,4.56
2019-04-10T05:57:13.295Z,4.62
2019-04-10T05:59:45.998Z,4.71
2019-04-10T06:02:20.017Z,4.70
2019-04-10T06:04:52.579Z,4.73
2019-04-10T06:07:25.530Z,4.86
2019-04-10T06:10:04.326Z,4.83
2019-04-10T06:12:38.409Z,4.85
2019-04-10T06:15:12.970Z,4.86
2019-04-10T06:17:46.942Z,4.95
2019-04-10T06:20:21.067Z,5.03
2019-04-10T06:22:54.877Z,5.05
2019-04-10T06:25:28.971Z,5.09
2019-04-10T06:28:07.843Z,5.06
2019-04-10T06:30:50.346Z,5.13
2019-04-10T06:33:34.014Z,5.21
2019-04-10T06:36:09.171Z,5.28
2019-04-10T06:38:50.867Z,5.39
2019-04-10T06:41:26.322Z,5.43
2019-04-10T06:43:59.194Z,5.47
2019-04-10T06:46:32.801Z,5.54
2019-04-10T06:49:07.818Z,5.64
2019-04-10T06:51:41.290Z,5.71
2019-04-10T06:54:14.396Z,5.75
2019-04-10T06:56:48.513Z,5.78
2019-04-10T06:59:26.195Z,5.86
2019-04-10T07:02:14.139Z,5.89
2019-04-10T07:04:56.071Z,5.91
2019-04-10T07:07:45.321Z,5.93
2019-04-10T07:10:29.893Z,5.99
2019-04-10T07:13:08.689Z,6.03
2019-04-10T07:15:45.321Z,6.10
2019-04-10T07:18:21.990Z,6.16
2019-04-10T07:20:58.380Z,6.25
2019-04-10T07:23:33.832Z,6.36
2019-04-10T07:26:08.056Z,6.43
2019-04-10T07:28:46.323Z,6.49
2019-04-10T07:31:21.579Z,6.60
2019-04-10T07:33:59.826Z,6.63
2019-04-10T07:36:33.062Z,6.69
2019-04-10T07:39:08.015Z,6.79
2019-04-10T07:41:41.788Z,6.81
2019-04-10T07:44:14.447Z,6.91
2019-04-10T07:46:48.831Z,7.08
2019-04-10T07:49:26.655Z,7.35
2019-04-10T07:52:03.387Z,7.63
2019-04-10T07:54:36.720Z,8.33
2019-04-10T07:57:11.821Z,9.02
2019-04-10T07:59:45.277Z,9.66
2019-04-10T08:02:18.034Z,10.12
2019-04-10T08:04:55.846Z,10.52
2019-04-10T08:07:31.814Z,10.79
2019-04-10T08:10:07.931Z,10.72
2019-04-10T08:12:47.403Z,10.81
2019-04-10T08:15:25.221Z,11.03
2019-04-10T08:17:58.884Z,11.21
2019-04-10T08:20:33.086Z,11.31
2019-04-10T08:23:07.935Z,11.36
2019-04-10T08:25:41.447Z,11.46
2019-04-10T08:28:15.939Z,11.50
2019-04-10T08:30:48.359Z,11.57
2019-04-10T08:33:21.806Z,11.82
2019-04-10T08:35:56.860Z,11.71
2019-04-10T08:38:30.026Z,11.77
2019-04-10T08:41:02.915Z,11.99
2019-04-10T08:43:37.585Z,12.05
2019-04-10T08:46:10.876Z,12.20
2019-04-10T08:48:44.423Z,12.35
2019-04-10T08:51:19.969Z,12.34
2019-04-10T08:53:56.652Z,12.50
2019-04-10T08:56:30.226Z,12.72
2019-04-10T08:59:03.492Z,12.72
2019-04-10T09:01:37.639Z,12.59
2019-04-10T09:04:12.307Z,12.74
2019-04-10T09:06:45.923Z,12.68
2019-04-10T09:09:18.703Z,12.82
2019-04-10T09:11:53.613Z,12.77
2019-04-10T09:14:27.747Z,12.51
2019-04-10T09:17:01.054Z,12.49
2019-04-10T09:19:36.308Z,12.52
2019-04-10T09:22:14.060Z,12.64
2019-04-10T09:24:52.804Z,12.66
2019-04-10T09:27:26.753Z,12.91
2019-04-10T09:30:00.370Z,13.07
2019-04-10T09:32:37.104Z,13.23
2019-04-10T09:35:12.330Z,13.32
2019-04-10T09:37:50.437Z,13.46
2019-04-10T09:40:27.991Z,13.78
2019-04-10T09:43:00.433Z,13.89
2019-04-10T09:45:34.960Z,13.96
2019-04-10T09:48:08.492Z,13.84
2019-04-10T09:50:43.901Z,13.55
2019-04-10T09:53:17.079Z,13.46
2019-04-10T09:55:50.839Z,13.78
2019-04-10T09:58:26.217Z,13.97
2019-04-10T10:01:01.421Z,14.18
2019-04-10T10:03:36.693Z,14.47
2019-04-10T10:06:25.169Z,14.17
2019-04-10T10:09:04.334Z,13.95
2019-04-10T10:11:38.609Z,13.91
2019-04-10T10:14:14.545Z,14.07
2019-04-10T10:16:48.585Z,14.44
2019-04-10T10:19:23.747Z,14.59
2019-04-10T10:22:01.836Z,14.63
2019-04-10T10:24:40.269Z,14.58
2019-04-10T10:27:13.835Z,14.60
2019-04-10T10:29:46.321Z,14.69
2019-04-10T10:32:19.852Z,14.56
2019-04-10T10:34:52.852Z,14.38
2019-04-10T10:37:26.426Z,14.32
2019-04-10T10:39:59.653Z,14.31
2019-04-10T10:42:33.868Z,14.31
2019-04-10T10:45:10.461Z,14.36
2019-04-10T10:47:44.492Z,14.56
2019-04-10T10:50:19.265Z,14.50
2019-04-10T10:52:52.130Z,14.84
2019-04-10T10:55:25.852Z,14.73
2019-04-10T10:57:59.752Z,14.74
2019-04-10T11:00:33.557Z,14.71
2019-04-10T11:03:07.833Z,14.60
2019-04-10T11:05:44.512Z,14.79
2019-04-10T11:08:17.668Z,15.17
2019-04-10T11:10:55.837Z,15.07
2019-04-10T11:13:30.863Z,15.20
2019-04-10T11:16:06.355Z,15.18
2019-04-10T11:18:42.505Z,15.01
2019-04-10T11:21:16.648Z,15.07
2019-04-10T11:23:53.149Z,14.91
2019-04-10T11:26:30.230Z,14.80
2019-04-10T11:29:05.535Z,14.74
2019-04-10T11:31:39.634Z,14.61
2019-04-10T11:34:22.639Z,14.58
2019-04-10T11:37:16.598Z,14.81
2019-04-10T11:40:01.236Z,15.17
2019-04-10T11:42:37.149Z,15.04
2019-04-10T11:45:25.443Z,14.97
2019-04-10T11:48:07.727Z,15.09
2019-04-10T11:50:53.424Z,14.99
2019-04-10T11:53:32.708Z,15.04
2019-04-10T11:56:11.597Z,15.02
2019-04-10T11:58:55.574Z,15.07
2019-04-10T12:01:43.188Z,15.30
2019-04-10T12:04:44.529Z,15.35
2019-04-10T12:08:00.076Z,15.41
2019-04-10T12:13:48.227Z,15.63
2019-04-10T12:16:34.725Z,15.50
2019-04-10T12:19:08.506Z,15.30
2019-04-10T12:21:42.106Z,15.13
2019-04-10T12:24:30.022Z,15.12
2019-04-10T12:27:15.220Z,15.05
2019-04-10T12:30:02.904Z,15.11
2019-04-10T12:32:43.631Z,15.24
2019-04-10T12:35:19.273Z,15.08
2019-04-10T12:38:07.263Z,15.07
2019-04-10T12:40:57.240Z,15.20
2019-04-10T12:43:32.943Z,15.36
2019-04-10T12:46:24.629Z,15.31
2019-04-10T12:49:09.577Z,15.23
2019-04-10T12:52:05.956Z,15.28
2019-04-10T12:54:40.495Z,15.20
2019-04-10T12:57:19.769Z,15.15
2019-04-10T13:00:04.528Z,15.17
2019-04-10T13:02:44.937Z,15.29
2019-04-10T13:05:29.332Z,15.19
2019-04-10T13:08:17.858Z,15.18
2019-04-10T13:10:58.069Z,15.17
2019-04-10T13:13:46.762Z,15.00
2019-04-10T13:16:29.704Z,15.03
2019-04-10T13:19:09.075Z,15.09
2019-04-10T13:21:53.691Z,15.22
2019-04-10T13:24:37.476Z,15.27
2019-04-10T13:27:20.846Z,15.04
2019-04-10T13:30:00.735Z,15.01
2019-04-10T13:32:40.455Z,15.21
2019-04-10T13:35:29.028Z,15.32
2019-04-10T13:38:06.516Z,15.27
2019-04-10T13:40:50.450Z,15.23
2019-04-10T13:43:30.806Z,15.45
2019-04-10T13:46:22.689Z,15.55
2019-04-10T13:49:07.011Z,15.66
2019-04-10T13:51:39.892Z,15.59
2019-04-10T13:54:15.057Z,15.60
2019-04-10T13:56:57.207Z,15.67
2019-04-10T13:59:41.420Z,15.64
2019-04-10T14:02:32.239Z,15.62
2019-04-10T14:05:13.735Z,15.54
2019-04-10T14:07:49.346Z,15.46
2019-04-10T14:10:25.039Z,15.45
2019-04-10T14:12:58.354Z,15.63
2019-04-10T14:15:44.245Z,15.83
2019-04-10T14:18:19.008Z,15.63
2019-04-10T14:21:11.493Z,15.58
2019-04-10T14:23:55.534Z,15.56
2019-04-10T14:26:56.761Z,15.63
2019-04-10T14:29:32.550Z,15.66
2019-04-10T14:32:41.659Z,15.73
2019-04-10T14:35:55.696Z,15.47
2019-04-10T14:38:53.566Z,15.51
2019-04-10T14:41:30.630Z,15.59
2019-04-10T14:44:17.934Z,15.80
2019-04-10T14:46:56.018Z,15.66
2019-04-10T14:49:38.938Z,15.56
2019-04-10T14:52:29.575Z,15.58
2019-04-10T14:55:04.518Z,15.67
2019-04-10T14:57:39.813Z,15.70
2019-04-10T15:00:26.581Z,15.56
2019-04-10T15:03:00.066Z,15.55
2019-04-10T15:05:46.557Z,15.66
2019-04-10T15:08:31.465Z,15.75
2019-04-10T15:11:20.993Z,15.84
2019-04-10T15:13:55.458Z,15.83
2019-04-10T15:16:36.695Z,15.93
2019-04-10T15:19:28.974Z,16.03
2019-04-10T15:22:13.736Z,15.98
2019-04-10T15:24:54.443Z,16.02
2019-04-10T15:27:31.341Z,16.01
2019-04-10T15:30:10.529Z,15.87
2019-04-10T15:32:56.656Z,15.70
2019-04-10T15:35:42.547Z,15.58
2019-04-10T15:38:24.676Z,15.64
2019-04-10T15:41:06.495Z,15.76
2019-04-10T15:43:41.243Z,15.59
2019-04-10T15:46:17.261Z,15.32
2019-04-10T15:48:54.907Z,15.17
2019-04-10T15:51:32.512Z,14.94
2019-04-10T15:54:19.118Z,14.91
2019-04-10T15:56:52.699Z,14.86
2019-04-10T15:59:40.669Z,14.85
2019-04-10T16:02:15.380Z,14.72
2019-04-10T16:04:51.069Z,14.54
2019-04-10T16:07:30.835Z,14.64
2019-04-10T16:10:33.677Z,14.72
2019-04-10T16:13:30.353Z,14.79
2019-04-10T16:16:12.235Z,14.55
2019-04-10T16:18:47.284Z,14.17
2019-04-10T16:21:22.059Z,14.20
2019-04-10T16:24:04.649Z,14.17
2019-04-10T16:26:41.343Z,14.19
2019-04-10T16:29:18.127Z,14.13
2019-04-10T16:31:54.562Z,14.13
2019-04-10T16:34:32.470Z,14.10
2019-04-10T16:37:06.965Z,13.82
2019-04-10T16:39:42.257Z,13.83
2019-04-10T16:42:24.225Z,13.67
2019-04-10T16:44:59.722Z,13.53
2019-04-10T16:47:46.256Z,13.51
2019-04-10T16:50:21.695Z,13.52
2019-04-10T16:53:01.373Z,13.37
2019-04-10T16:55:41.063Z,13.22
2019-04-10T16:58:15.879Z,13.14
2019-04-10T17:00:50.917Z,13.13
2019-04-10T17:03:25.447Z,13.18
2019-04-10T17:06:01.855Z,13.12
2019-04-10T17:08:39.161Z,12.97
2019-04-10T17:11:14.630Z,12.85
2019-04-10T17:13:48.878Z,12.77
2019-04-10T17:16:24.069Z,12.63
2019-04-10T17:18:57.599Z,12.53
2019-04-10T17:21:31.313Z,12.36
2019-04-10T17:24:09.121Z,12.24
2019-04-10T17:26:45.326Z,12.17
2019-04-10T17:29:18.194Z,12.05
2019-04-10T17:31:59.247Z,11.96
2019-04-10T17:34:35.727Z,11.81
2019-04-10T17:37:09.727Z,11.66
2019-04-10T17:39:43.878Z,11.47
2019-04-10T17:42:21.894Z,11.36
2019-04-10T17:44:56.204Z,11.18
2019-04-10T17:47:33.487Z,11.05
2019-04-10T17:50:12.062Z,10.91
2019-04-10T17:52:47.071Z,10.76
2019-04-10T17:55:23.225Z,10.64
2019-04-10T17:57:57.721Z,10.44
2019-04-10T18:00:57.784Z,10.25
2019-04-10T18:03:46.160Z,10.04
2019-04-10T18:06:23.725Z,9.85
2019-04-10T18:08:59.174Z,9.77
2019-04-10T18:11:35.657Z,9.52
2019-04-10T18:14:09.126Z,9.38
2019-04-10T18:16:44.270Z,9.30
2019-04-10T18:19:19.118Z,9.22
2019-04-10T18:21:52.547Z,9.05
2019-04-10T18:24:26.816Z,8.84
2019-04-10T18:27:07.977Z,8.74
2019-04-10T18:29:42.031Z,8.63
2019-04-10T18:32:15.846Z,8.52
2019-04-10T18:34:52.130Z,8.59
2019-04-10T18:37:31.328Z,8.53
2019-04-10T18:40:08.808Z,8.43
2019-04-10T18:42:43.459Z,8.31
2019-04-10T18:45:35.597Z,8.27
2019-04-10T18:48:11.944Z,8.26
2019-04-10T18:50:51.644Z,8.24
2019-04-10T18:53:26.797Z,8.17
2019-04-10T18:56:02.874Z,8.15
2019-04-10T18:58:44.266Z,8.00
2019-04-10T19:01:23.674Z,7.96
2019-04-10T19:04:11.076Z,7.95
2019-04-10T19:06:53.137Z,7.93
2019-04-10T19:09:32.531Z,7.80
2019-04-10T19:12:08.483Z,7.73
2019-04-10T19:14:42.455Z,7.66
2019-04-10T19:17:15.628Z,7.66
2019-04-10T19:19:52.872Z,7.66
2019-04-10T19:22:36.977Z,7.67
2019-04-10T19:25:11.905Z,7.72
2019-04-10T19:27:46.908Z,7.58
2019-04-10T19:30:41.479Z,7.50
2019-04-10T19:33:16.214Z,7.48
2019-04-10T19:35:50.929Z,7.52
2019-04-10T19:38:27.387Z,7.42
2019-04-10T19:41:02.548Z,7.45
2019-04-10T19:43:35.815Z,7.36
2019-04-10T19:46:09.508Z,7.30
2019-04-10T19:48:43.554Z,7.29
2019-04-10T19:51:21.725Z,7.30
2019-04-10T19:53:55.590Z,7.22
2019-04-10T19:56:30.765Z,7.06
2019-04-10T19:59:06.840Z,7.00
2019-04-10T20:01:40.331Z,6.97
2019-04-10T20:04:12.794Z,7.01
2019-04-10T20:06:46.800Z,6.95
2019-04-10T20:09:20.636Z,6.91
2019-04-10T20:11:56.196Z,6.92
2019-04-10T20:14:32.552Z,6.84
2019-04-10T20:17:08.907Z,6.71
2019-04-10T20:19:42.544Z,6.67
2019-04-10T20:22:20.907Z,6.66
2019-04-10T20:24:54.767Z,6.56
2019-04-10T20:27:27.812Z,6.41
2019-04-10T20:30:05.831Z,6.27
2019-04-10T20:32:38.675Z,6.24
2019-04-10T20:35:14.005Z,6.20
2019-04-10T20:37:47.267Z,6.23
2019-04-10T20:40:22.160Z,6.28
2019-04-10T20:42:58.367Z,6.26
2019-04-10T20:45:31.815Z,6.15
2019-04-10T20:48:06.556Z,6.08
2019-04-10T20:50:39.738Z,6.07
2019-04-10T20:53:12.644Z,6.02
2019-04-10T20:55:46.035Z,5.93
2019-04-10T20:58:20.185Z,5.85
2019-04-10T21:00:52.789Z,5.83
2019-04-10T21:03:25.333Z,5.69
2019-04-10T21:06:00.487Z,5.71
2019-04-10T21:08:34.189Z,5.65
2019-04-10T21:11:07.569Z,5.63
2019-04-10T21:13:40.985Z,5.70
2019-04-10T21:16:15.585Z,5.77
2019-04-10T21:18:51.619Z,5.76
2019-04-10T21:21:26.442Z,5.73
2019-04-10T21:23:59.011Z,5.69
2019-04-10T21:26:34.655Z,5.70
2019-04-10T21:29:16.354Z,5.77
2019-04-10T21:32:10.707Z,5.72
2019-04-10T21:34:55.979Z,5.74
2019-04-10T21:37:28.863Z,5.66
2019-04-10T21:40:02.703Z,5.67
2019-04-10T21:42:35.463Z,5.57
2019-04-10T21:45:09.427Z,5.45
2019-04-10T21:47:44.019Z,5.57
2019-04-10T21:50:18.441Z,5.52
2019-04-10T21:52:53.054Z,5.53
2019-04-10T21:55:26.886Z,5.41
2019-04-10T21:57:59.618Z,5.59
2019-04-10T22:00:53.365Z,5.58
2019-04-10T22:03:27.420Z,5.44
2019-04-10T22:06:23.939Z,5.43
2019-04-10T22:09:14.971Z,5.53
2019-04-10T22:11:51.179Z,5.62
2019-04-10T22:14:24.090Z,5.65
2019-04-10T22:16:56.810Z,5.56
2019-04-10T22:19:30.384Z,5.44
2019-04-10T22:22:04.233Z,5.34
2019-04-10T22:24:39.245Z,5.28
2019-04-10T22:27:13.003Z,5.33
2019-04-10T22:29:45.556Z,5.31
2019-04-10T22:32:19.000Z,5.25
2019-04-10T22:34:52.733Z,5.22
2019-04-10T22:37:25.993Z,5.33
2019-04-10T22:39:59.000Z,5.35
2019-04-10T22:42:40.167Z,5.31
2019-04-10T22:45:29.309Z,5.30
2019-04-10T22:48:04.193Z,5.28
2019-04-10T22:50:39.803Z,5.24
2019-04-10T22:53:13.484Z,5.31
2019-04-10T22:55:46.520Z,5.29
2019-04-10T22:58:19.199Z,5.13
2019-04-10T23:00:52.091Z,5.05
2019-04-10T23:03:24.698Z,4.93
2019-04-10T23:05:57.254Z,4.83
2019-04-10T23:08:31.634Z,4.80
2019-04-10T23:11:05.688Z,4.76
2019-04-10T23:13:38.712Z,4.73
2019-04-10T23:16:15.371Z,4.67
2019-04-10T23:18:49.686Z,4.66
2019-04-10T23:21:22.881Z,4.58
2019-04-10T23:23:57.141Z,4.50
2019-04-10T23:26:31.216Z,4.41
2019-04-10T23:29:04.175Z,4.27
2019-04-10T23:31:37.441Z,4.19
2019-04-10T23:34:10.186Z,4.08
2019-04-10T23:36:42.946Z,3.95
2019-04-10T23:39:16.671Z,3.77
2019-04-10T23:41:51.013Z,3.62
2019-04-10T23:44:24.999Z,3.52
2019-04-10T23:46:57.951Z,3.56
2019-04-10T23:49:30.799Z,3.56
2019-04-10T23:52:03.541Z,3.58
2019-04-10T23:54:37.432Z,3.50
2019-04-10T23:57:11.449Z,3.43
2019-04-10T23:59:44.641Z,3.27
